McHenry, Mississippi
Current Conditions -  °F | °C
As of 12:53 PM on Saturday 25 Oct 2014 (Local Time) from KGPT Reporting Station
Clear Clear  
Wind Chill: 77°   Ceiling: Unl
Heat Index: 78°   Visibility: 10mi
Dew Point: 53°   Wind: 8mph
Humidity: 43%   Direction: 330°NNW
Pressure: 30.1"   Gusts: NA
Location:  30.71°N, 89.14°W
Report Text: KGPT 251753Z 33007KT 10SM CLR 25/12 A3010 RMK AO2 SLP191 T02500117 10250 20089 58017
Loading
Personal Weather Stations






























Interactive Weather Map
Tropical Storm Tracking
New forecast layout! Learn more

10-Day Weather Forecast

Advertisements
Track Severe Weather on mobile